createdAt,value
2018-11-10T00:00:23.246Z,99552.14
2018-11-10T00:00:57.611Z,99562.02
2018-11-10T00:01:31.990Z,99560.09
2018-11-10T00:02:06.699Z,99557.60
2018-11-10T00:02:41.400Z,99553.69
2018-11-10T00:03:16.023Z,99551.91
2018-11-10T00:03:50.584Z,99549.59
2018-11-10T00:04:24.981Z,99552.78
2018-11-10T00:04:59.560Z,99547.00
2018-11-10T00:05:34.278Z,99549.72
2018-11-10T00:06:08.647Z,99548.88
2018-11-10T00:06:43.480Z,99543.60
2018-11-10T00:07:18.123Z,99546.47
2018-11-10T00:07:52.612Z,99548.26
2018-11-10T00:08:27.401Z,99545.25
2018-11-10T00:09:01.848Z,99546.73
2018-11-10T00:09:36.313Z,99542.61
2018-11-10T00:10:10.765Z,99546.64
2018-11-10T00:10:45.244Z,99543.31
2018-11-10T00:11:19.868Z,99543.80
2018-11-10T00:11:54.269Z,99538.15
2018-11-10T00:12:28.671Z,99539.89
2018-11-10T00:13:03.038Z,99545.97
2018-11-10T00:13:37.446Z,99537.82
2018-11-10T00:14:12.286Z,99538.05
2018-11-10T00:14:46.996Z,99539.62
2018-11-10T00:15:21.415Z,99538.39
2018-11-10T00:15:55.816Z,99536.41
2018-11-10T00:16:30.230Z,99536.30
2018-11-10T00:17:04.790Z,99533.88
2018-11-10T00:17:39.553Z,99533.55
2018-11-10T00:18:14.283Z,99530.53
2018-11-10T00:18:48.844Z,99530.88
2018-11-10T00:19:23.388Z,99527.45
2018-11-10T00:19:57.763Z,99527.11
2018-11-10T00:20:32.320Z,99532.34
2018-11-10T00:21:06.672Z,99524.94
2018-11-10T00:21:41.073Z,99531.89
2018-11-10T00:22:15.886Z,99530.10
2018-11-10T00:22:50.375Z,99528.19
2018-11-10T00:23:24.754Z,99528.86
2018-11-10T00:23:59.277Z,99530.94
2018-11-10T00:24:33.685Z,99523.91
2018-11-10T00:25:10.393Z,99527.38
2018-11-10T00:25:44.937Z,99520.47
2018-11-10T00:26:19.807Z,99526.77
2018-11-10T00:26:54.180Z,99525.80
2018-11-10T00:27:28.549Z,99523.17
2018-11-10T00:28:02.929Z,99518.57
2018-11-10T00:28:37.347Z,99521.95
2018-11-10T00:29:12.074Z,99520.84
2018-11-10T00:29:46.516Z,99528.92
2018-11-10T00:30:21.153Z,99521.89
2018-11-10T00:30:55.574Z,99524.98
2018-11-10T00:31:29.928Z,99526.16
2018-11-10T00:32:04.333Z,99523.38
2018-11-10T00:32:38.930Z,99527.45
2018-11-10T00:33:13.582Z,99525.33
2018-11-10T00:33:48.296Z,99531.09
2018-11-10T00:34:22.968Z,99525.98
2018-11-10T00:34:57.340Z,99532.23
2018-11-10T00:35:31.778Z,99535.08
2018-11-10T00:36:06.205Z,99537.06
2018-11-10T00:36:41.022Z,99534.30
2018-11-10T00:37:15.614Z,99528.90
2018-11-10T00:37:50.072Z,99541.08
2018-11-10T00:38:24.404Z,99533.07
2018-11-10T00:38:58.812Z,99532.34
2018-11-10T00:39:33.196Z,99535.59
2018-11-10T00:40:09.160Z,99533.91
2018-11-10T00:40:43.888Z,99534.03
2018-11-10T00:41:19.019Z,99530.04
2018-11-10T00:41:53.375Z,99542.50
2018-11-10T00:42:27.725Z,99538.89
2018-11-10T00:43:02.163Z,99537.27
2018-11-10T00:43:36.991Z,99537.93
2018-11-10T00:44:11.989Z,99546.97
2018-11-10T00:44:46.792Z,99543.16
2018-11-10T00:45:21.556Z,99540.39
2018-11-10T00:45:55.967Z,99537.42
2018-11-10T00:46:30.436Z,99535.86
2018-11-10T00:47:05.777Z,99535.02
2018-11-10T00:47:40.382Z,99540.27
2018-11-10T00:48:15.093Z,99542.76
2018-11-10T00:48:49.675Z,99544.83
2018-11-10T00:49:24.094Z,99546.57
2018-11-10T00:49:58.471Z,99531.59
2018-11-10T00:50:32.856Z,99536.40
2018-11-10T00:51:07.640Z,99538.70
2018-11-10T00:51:42.159Z,99532.25
2018-11-10T00:52:16.792Z,99535.29
2018-11-10T00:52:51.734Z,99536.76
2018-11-10T00:53:26.175Z,99534.72
2018-11-10T00:54:00.611Z,99536.45
2018-11-10T00:54:35.069Z,99531.59
2018-11-10T00:55:09.852Z,99528.51
2018-11-10T00:55:44.913Z,99527.73
2018-11-10T00:56:19.535Z,99525.36
2018-11-10T00:56:53.919Z,99532.11
2018-11-10T00:57:28.309Z,99528.52
2018-11-10T00:58:02.701Z,99521.16
2018-11-10T00:58:37.190Z,99523.73
2018-11-10T00:59:12.777Z,99520.31
2018-11-10T00:59:47.286Z,99516.56
2018-11-10T01:00:21.500Z,99519.53
2018-11-10T01:00:55.902Z,99521.22
2018-11-10T01:01:30.760Z,99514.88
2018-11-10T01:02:05.142Z,99520.70
2018-11-10T01:02:39.602Z,99517.14
2018-11-10T01:03:14.161Z,99515.84
2018-11-10T01:03:48.754Z,99521.23
2018-11-10T01:04:23.155Z,99518.03
2018-11-10T01:04:57.543Z,99524.09
2018-11-10T01:05:32.031Z,99520.94
2018-11-10T01:06:06.584Z,99522.92
2018-11-10T01:06:41.100Z,99527.58
2018-11-10T01:07:15.916Z,99524.21
2018-11-10T01:07:50.375Z,99522.69
2018-11-10T01:08:24.807Z,99518.81
2018-11-10T01:08:59.177Z,99524.98
2018-11-10T01:09:33.577Z,99521.72
2018-11-10T01:10:10.469Z,99527.00
2018-11-10T01:10:45.143Z,99522.50
2018-11-10T01:11:20.065Z,99525.15
2018-11-10T01:11:54.423Z,99515.72
2018-11-10T01:12:28.945Z,99515.39
2018-11-10T01:13:03.320Z,99518.58
2018-11-10T01:13:37.731Z,99513.87
2018-11-10T01:14:12.251Z,99513.92
2018-11-10T01:14:46.732Z,99507.35
2018-11-10T01:15:21.177Z,99508.77
2018-11-10T01:15:55.951Z,99511.67
2018-11-10T01:16:30.386Z,99508.94
2018-11-10T01:17:04.767Z,99502.76
2018-11-10T01:17:39.393Z,99498.05
2018-11-10T01:18:14.277Z,99495.98
2018-11-10T01:18:48.998Z,99499.97
2018-11-10T01:19:23.605Z,99503.33
2018-11-10T01:19:57.976Z,99496.03
2018-11-10T01:20:32.433Z,99504.61
2018-11-10T01:21:07.203Z,99504.73
2018-11-10T01:21:42.638Z,99503.44
2018-11-10T01:22:17.454Z,99503.05
2018-11-10T01:22:51.929Z,99502.70
2018-11-10T01:23:26.724Z,99509.89
2018-11-10T01:24:01.117Z,99505.63
2018-11-10T01:24:35.618Z,99503.66
2018-11-10T01:25:11.250Z,99503.33
2018-11-10T01:25:45.999Z,99499.91
2018-11-10T01:26:20.480Z,99497.33
2018-11-10T01:26:54.827Z,99496.75
2018-11-10T01:27:29.224Z,99488.23
2018-11-10T01:28:04.177Z,99494.34
2018-11-10T01:28:38.856Z,99491.83
2018-11-10T01:29:14.039Z,99496.59
2018-11-10T01:29:48.645Z,99494.17
2018-11-10T01:30:23.167Z,99494.17
2018-11-10T01:30:57.519Z,99492.16
2018-11-10T01:31:31.938Z,99492.55
2018-11-10T01:32:07.032Z,99491.32
2018-11-10T01:32:41.724Z,99497.66
2018-11-10T01:33:16.297Z,99494.95
2018-11-10T01:33:50.856Z,99498.22
2018-11-10T01:34:25.292Z,99492.28
2018-11-10T01:34:59.653Z,99501.19
2018-11-10T01:35:34.208Z,99489.85
2018-11-10T01:36:08.644Z,99496.58
2018-11-10T01:36:43.378Z,99493.60
2018-11-10T01:37:18.155Z,99489.46
2018-11-10T01:37:52.740Z,99488.78
2018-11-10T01:38:27.097Z,99485.30
2018-11-10T01:39:02.577Z,99484.84
2018-11-10T01:39:36.984Z,99480.25
2018-11-10T01:40:12.965Z,99483.46
2018-11-10T01:40:47.499Z,99480.07
2018-11-10T01:41:21.951Z,99483.59
2018-11-10T01:41:56.340Z,99488.05
2018-11-10T01:42:30.710Z,99489.02
2018-11-10T01:43:05.160Z,99489.63
2018-11-10T01:43:39.571Z,99455.69
2018-11-10T01:44:14.650Z,99487.14
2018-11-10T01:44:49.408Z,99486.37
2018-11-10T01:45:23.802Z,99485.14
2018-11-10T01:45:58.208Z,99481.94
2018-11-10T01:47:35.726Z,99484.75
2018-11-10T01:48:10.113Z,99487.88
2018-11-10T01:48:45.114Z,99494.08
2018-11-10T01:49:19.891Z,99492.65
2018-11-10T01:49:54.277Z,99490.06
2018-11-10T01:50:28.663Z,99494.20
2018-11-10T01:51:03.003Z,99494.94
2018-11-10T01:51:37.588Z,99493.48
2018-11-10T01:52:12.076Z,99495.73
2018-11-10T01:52:46.760Z,99492.25
2018-11-10T01:53:21.665Z,99486.05
2018-11-10T01:53:56.272Z,99488.27
2018-11-10T01:54:30.688Z,99485.08
2018-11-10T01:55:06.234Z,99485.53
2018-11-10T01:55:41.094Z,99484.75
2018-11-10T01:56:15.781Z,99479.08
2018-11-10T01:56:50.418Z,99478.17
2018-11-10T01:57:25.033Z,99475.41
2018-11-10T01:57:59.415Z,99477.83
2018-11-10T01:58:33.841Z,99474.63
2018-11-10T01:59:08.225Z,99476.36
2018-11-10T01:59:42.935Z,99473.97
2018-11-10T02:00:18.691Z,99469.93
2018-11-10T02:00:53.205Z,99466.05
2018-11-10T02:01:27.620Z,99474.19
2018-11-10T02:02:01.976Z,99472.96
2018-11-10T02:02:36.171Z,99466.95
2018-11-10T02:03:10.750Z,99465.73
2018-11-10T02:03:45.238Z,99470.77
2018-11-10T02:04:19.717Z,99466.67
2018-11-10T02:04:54.180Z,99467.91
2018-11-10T02:05:28.586Z,99467.72
2018-11-10T02:06:02.986Z,99464.91
2018-11-10T02:06:37.386Z,99470.85
2018-11-10T02:07:12.118Z,99467.30
2018-11-10T02:07:46.575Z,99469.21
2018-11-10T02:08:21.320Z,99467.18
2018-11-10T02:08:55.713Z,99464.95
2018-11-10T02:09:30.128Z,99465.63
2018-11-10T02:10:04.896Z,99460.66
2018-11-10T02:10:39.253Z,99456.95
2018-11-10T02:11:13.811Z,99457.55
2018-11-10T02:11:48.336Z,99456.14
2018-11-10T02:12:22.676Z,99452.09
2018-11-10T02:12:57.034Z,99455.20
2018-11-10T02:13:31.844Z,99455.48
2018-11-10T02:14:06.270Z,99459.20
2018-11-10T02:14:40.724Z,99452.45
2018-11-10T02:15:16.442Z,99455.04
2018-11-10T02:15:50.972Z,99468.64
2018-11-10T02:16:25.416Z,99455.95
2018-11-10T02:16:59.795Z,99459.56
2018-11-10T02:17:34.153Z,99457.46
2018-11-10T02:18:08.501Z,99462.72
2018-11-10T02:18:43.417Z,99457.39
2018-11-10T02:19:17.951Z,99452.84
2018-11-10T02:19:52.412Z,99414.74
2018-11-10T02:20:26.850Z,99454.16
2018-11-10T02:21:01.200Z,99455.20
2018-11-10T02:21:35.586Z,99450.64
2018-11-10T02:22:10.027Z,99453.61
2018-11-10T02:22:44.872Z,99447.67
2018-11-10T02:23:19.567Z,99450.16
2018-11-10T02:23:54.340Z,99452.00
2018-11-10T02:24:28.770Z,99445.38
2018-11-10T02:25:03.541Z,99452.90
2018-11-10T02:25:37.949Z,99450.09
2018-11-10T02:26:12.960Z,99450.42
2018-11-10T02:26:47.931Z,99447.80
2018-11-10T02:27:23.676Z,99446.19
2018-11-10T02:27:58.053Z,99450.61
2018-11-10T02:28:32.774Z,99450.16
2018-11-10T02:29:07.116Z,99448.55
2018-11-10T02:29:42.112Z,99447.67
2018-11-10T02:30:16.686Z,99447.22
2018-11-10T02:30:51.237Z,99446.03
2018-11-10T02:31:25.649Z,99450.09
2018-11-10T02:31:59.999Z,99444.06
2018-11-10T02:32:34.364Z,99441.70
2018-11-10T02:33:08.808Z,99438.70
2018-11-10T02:33:43.732Z,99440.05
2018-11-10T02:34:18.328Z,99436.79
2018-11-10T02:34:53.262Z,99437.76
2018-11-10T02:35:27.701Z,99433.20
2018-11-10T02:36:02.113Z,99437.69
2018-11-10T02:36:36.630Z,99432.20
2018-11-10T02:37:11.395Z,99434.40
2018-11-10T02:37:46.032Z,99432.30
2018-11-10T02:38:20.541Z,99426.36
2018-11-10T02:38:55.054Z,99434.70
2018-11-10T02:39:29.489Z,99437.12
2018-11-10T02:40:03.995Z,99436.95
2018-11-10T02:40:38.338Z,99424.20
2018-11-10T02:41:13.248Z,99426.40
2018-11-10T02:41:47.882Z,99434.08
2018-11-10T02:42:22.513Z,99436.50
2018-11-10T02:42:56.888Z,99432.44
2018-11-10T02:43:31.282Z,99425.27
2018-11-10T02:44:06.349Z,99425.46
2018-11-10T02:44:41.022Z,99428.05
2018-11-10T02:45:16.018Z,99418.00
2018-11-10T02:45:50.568Z,99417.97
2018-11-10T02:46:24.958Z,99417.33
2018-11-10T02:46:59.470Z,99419.36
2018-11-10T02:47:33.844Z,99418.26
2018-11-10T02:48:08.251Z,99425.40
2018-11-10T02:48:42.892Z,99414.61
2018-11-10T02:49:17.464Z,99416.03
2018-11-10T02:49:52.339Z,99426.07
2018-11-10T02:50:26.814Z,99417.55
2018-11-10T02:51:01.145Z,99416.94
2018-11-10T02:51:35.577Z,99413.52
2018-11-10T02:52:09.950Z,99410.61
2018-11-10T02:52:44.767Z,99410.67
2018-11-10T02:53:19.381Z,99406.42
2018-11-10T02:53:54.160Z,99408.64
2018-11-10T02:54:28.556Z,99404.22
2018-11-10T02:55:03.373Z,99411.12
2018-11-10T02:55:37.736Z,99406.35
2018-11-10T02:56:12.334Z,99406.13
2018-11-10T02:56:47.400Z,99405.77
2018-11-10T02:57:21.823Z,99408.03
2018-11-10T02:57:56.173Z,99408.94
2018-11-10T02:58:30.627Z,99411.39
2018-11-10T02:59:05.552Z,99402.19
2018-11-10T02:59:40.074Z,99405.31
2018-11-10T03:00:15.696Z,99396.25
2018-11-10T03:00:50.139Z,99404.16
2018-11-10T03:01:24.517Z,99404.55
2018-11-10T03:01:58.908Z,99402.93
2018-11-10T03:02:33.255Z,99401.70
2018-11-10T03:03:07.857Z,99398.56
2018-11-10T03:03:42.611Z,99404.02
2018-11-10T03:04:17.309Z,99405.22
2018-11-10T03:04:51.772Z,99402.09
2018-11-10T03:05:26.131Z,99407.77
2018-11-10T03:06:00.508Z,99408.25
2018-11-10T03:06:34.877Z,99405.58
2018-11-10T03:07:09.567Z,99403.55
2018-11-10T03:07:44.309Z,99404.99
2018-11-10T03:08:18.872Z,99394.86
2018-11-10T03:08:53.360Z,99400.58
2018-11-10T03:09:27.729Z,99398.83
2018-11-10T03:10:02.144Z,99401.08
2018-11-10T03:10:36.650Z,99406.63
2018-11-10T03:11:11.638Z,99403.23
2018-11-10T03:11:47.103Z,99403.59
2018-11-10T03:12:21.592Z,99401.01
2018-11-10T03:12:55.966Z,99406.88
2018-11-10T03:13:30.426Z,99403.57
2018-11-10T03:14:05.184Z,99403.34
2018-11-10T03:14:39.812Z,99403.86
2018-11-10T03:15:14.941Z,99406.86
2018-11-10T03:15:49.800Z,99400.23
2018-11-10T03:16:24.194Z,99398.49
2018-11-10T03:16:58.779Z,99399.88
2018-11-10T03:17:33.234Z,99398.95
2018-11-10T03:18:07.636Z,99393.98
2018-11-10T03:18:42.050Z,99392.24
2018-11-10T03:19:16.914Z,99355.71
2018-11-10T03:19:51.556Z,99398.73
2018-11-10T03:20:25.972Z,99398.60
2018-11-10T03:21:00.320Z,99399.57
2018-11-10T03:21:34.812Z,99397.16
2018-11-10T03:22:09.192Z,99405.38
2018-11-10T03:22:44.063Z,99402.99
2018-11-10T03:23:18.659Z,99407.41
2018-11-10T03:23:53.071Z,99415.28
2018-11-10T03:24:27.412Z,99406.77
2018-11-10T03:25:01.818Z,99412.61
2018-11-10T03:25:36.287Z,99406.16
2018-11-10T03:26:10.794Z,99408.90
2018-11-10T03:26:45.468Z,99397.80
2018-11-10T03:27:20.396Z,99406.52
2018-11-10T03:27:54.833Z,99403.93
2018-11-10T03:28:29.176Z,99400.50
2018-11-10T03:29:03.543Z,99398.86
2018-11-10T03:29:37.929Z,99400.08
2018-11-10T03:30:12.873Z,99393.47
2018-11-10T03:30:47.587Z,99398.86
2018-11-10T03:31:22.565Z,99402.48
2018-11-10T03:31:57.076Z,99396.75
2018-11-10T03:32:31.477Z,99398.04
2018-11-10T03:33:06.508Z,99404.03
2018-11-10T03:33:41.156Z,99394.08
2018-11-10T03:34:16.222Z,99390.77
2018-11-10T03:34:50.765Z,99392.88
2018-11-10T03:35:25.332Z,99394.08
2018-11-10T03:35:59.702Z,99388.52
2018-11-10T03:36:34.082Z,99384.11
2018-11-10T03:37:09.247Z,99380.70
2018-11-10T03:37:43.867Z,99377.00
2018-11-10T03:38:18.373Z,99372.12
2018-11-10T03:38:52.920Z,99371.47
2018-11-10T03:39:27.329Z,99372.12
2018-11-10T03:40:02.074Z,99370.19
2018-11-10T03:40:36.512Z,99370.14
2018-11-10T03:41:11.165Z,99372.29
2018-11-10T03:41:45.799Z,99373.80
2018-11-10T03:42:20.390Z,99370.01
2018-11-10T03:42:54.801Z,99361.56
2018-11-10T03:43:29.521Z,99372.07
2018-11-10T03:44:03.951Z,99371.82
2018-11-10T03:44:38.299Z,99367.41
2018-11-10T03:45:13.436Z,99364.28
2018-11-10T03:45:48.011Z,99372.09
2018-11-10T03:46:22.603Z,99369.23
2018-11-10T03:46:56.947Z,99365.80
2018-11-10T03:47:31.325Z,99366.09
2018-11-10T03:48:05.938Z,99371.64
2018-11-10T03:48:40.389Z,99369.31
2018-11-10T03:49:15.274Z,99374.64
2018-11-10T03:49:49.904Z,99371.96
2018-11-10T03:50:24.342Z,99372.88
2018-11-10T03:50:58.694Z,99374.31
2018-11-10T03:51:33.109Z,99380.12
2018-11-10T03:52:07.493Z,99381.41
2018-11-10T03:52:42.720Z,99389.91
2018-11-10T03:53:17.399Z,99393.59
2018-11-10T03:53:51.922Z,99399.67
2018-11-10T03:54:26.369Z,99401.44
2018-11-10T03:55:00.752Z,99397.31
2018-11-10T03:55:35.126Z,99401.55
2018-11-10T03:56:09.649Z,99400.31
2018-11-10T03:56:44.608Z,99401.61
2018-11-10T03:57:19.185Z,99405.67
2018-11-10T03:57:53.550Z,99397.54
2018-11-10T03:58:27.891Z,99402.06
2018-11-10T03:59:02.281Z,99403.16
2018-11-10T03:59:37.034Z,99403.16
2018-11-10T04:00:13.297Z,99398.16
2018-11-10T04:00:47.983Z,99393.59
2018-11-10T04:01:22.685Z,99391.24
2018-11-10T04:01:57.191Z,99388.14
2018-11-10T04:02:31.599Z,99386.20
2018-11-10T04:03:06.384Z,99387.75
2018-11-10T04:03:41.652Z,99383.93
2018-11-10T04:04:16.959Z,99383.36
2018-11-10T04:04:51.569Z,99381.38
2018-11-10T04:05:25.928Z,99383.69
2018-11-10T04:06:00.261Z,99382.80
2018-11-10T04:06:34.628Z,99383.75
2018-11-10T04:07:09.008Z,99389.92
2018-11-10T04:07:44.821Z,99395.62
2018-11-10T04:08:19.546Z,99384.73
2018-11-10T04:08:53.988Z,99388.56
2018-11-10T04:09:28.359Z,99386.41
2018-11-10T04:10:02.752Z,99394.08
2018-11-10T04:10:37.143Z,99394.30
2018-11-10T04:11:11.762Z,99388.98
2018-11-10T04:11:46.513Z,99393.89
2018-11-10T04:12:21.058Z,99396.16
2018-11-10T04:12:55.422Z,99394.18
2018-11-10T04:13:29.789Z,99386.95
2018-11-10T04:14:05.219Z,99389.98
2018-11-10T04:14:39.575Z,99392.18
2018-11-10T04:15:14.205Z,99395.28
2018-11-10T04:15:48.693Z,99397.44
2018-11-10T04:16:23.161Z,99399.17
2018-11-10T04:16:57.531Z,99394.76
2018-11-10T04:17:31.874Z,99396.47
2018-11-10T04:18:06.427Z,99403.83
2018-11-10T04:18:40.881Z,99403.89
2018-11-10T04:19:15.769Z,99404.73
2018-11-10T04:19:50.477Z,99400.02
2018-11-10T04:20:24.863Z,99398.57
2018-11-10T04:20:59.229Z,99396.95
2018-11-10T04:21:33.568Z,99394.84
2018-11-10T04:22:07.924Z,99387.01
2018-11-10T04:22:42.490Z,99385.81
2018-11-10T04:23:17.203Z,99381.34
2018-11-10T04:23:51.702Z,99391.56
2018-11-10T04:24:26.036Z,99386.33
2018-11-10T04:25:00.417Z,99393.34
2018-11-10T04:25:34.827Z,99393.02
2018-11-10T04:26:09.377Z,99395.33
2018-11-10T04:26:44.069Z,99392.44
2018-11-10T04:27:18.756Z,99396.16
2018-11-10T04:27:53.269Z,99393.55
2018-11-10T04:28:27.629Z,99397.44
2018-11-10T04:29:02.015Z,99407.37
2018-11-10T04:29:36.392Z,99410.03
2018-11-10T04:30:11.440Z,99418.00
2018-11-10T04:30:46.055Z,99418.84
2018-11-10T04:31:20.844Z,99418.69
2018-11-10T04:31:55.348Z,99413.87
2018-11-10T04:32:29.749Z,99413.09
2018-11-10T04:33:04.101Z,99416.26
2018-11-10T04:33:38.560Z,99421.03
2018-11-10T04:34:13.685Z,99424.55
2018-11-10T04:34:48.196Z,99425.07
2018-11-10T04:35:22.750Z,99435.11
2018-11-10T04:35:57.167Z,99438.34
2018-11-10T04:36:31.555Z,99441.54
2018-11-10T04:37:06.263Z,99443.13
2018-11-10T04:37:41.660Z,99445.05
2018-11-10T04:38:16.372Z,99449.08
2018-11-10T04:38:50.936Z,99445.95
2018-11-10T04:39:25.729Z,99443.96
2018-11-10T04:40:00.093Z,99443.22
2018-11-10T04:40:34.625Z,99438.05
2018-11-10T04:41:09.097Z,99429.72
2018-11-10T04:41:44.045Z,99428.14
2018-11-10T04:42:18.994Z,99422.88
2018-11-10T04:42:53.507Z,99426.20
2018-11-10T04:43:27.880Z,99416.57
2018-11-10T04:44:02.246Z,99420.98
2018-11-10T04:44:36.681Z,99423.72
2018-11-10T04:45:12.374Z,99413.64
2018-11-10T04:45:46.883Z,99412.92
2018-11-10T04:46:21.681Z,99410.61
2018-11-10T04:46:56.046Z,99407.13
2018-11-10T04:47:30.420Z,99404.05
2018-11-10T04:48:05.113Z,99402.59
2018-11-10T04:48:39.509Z,99403.53
2018-11-10T04:49:14.645Z,99399.44
2018-11-10T04:49:49.294Z,99399.17
2018-11-10T04:50:23.839Z,99394.23
2018-11-10T04:50:58.236Z,99398.94
2018-11-10T04:51:32.730Z,99391.20
2018-11-10T04:52:07.871Z,99387.39
2018-11-10T04:52:43.097Z,99378.36
2018-11-10T04:53:18.141Z,99383.30
2018-11-10T04:53:52.664Z,99378.42
2018-11-10T04:54:27.085Z,99372.45
2018-11-10T04:55:01.448Z,99366.52
2018-11-10T04:55:35.826Z,99368.71
2018-11-10T04:56:10.221Z,99383.75
2018-11-10T04:56:44.858Z,99387.23
2018-11-10T04:57:19.363Z,99400.77
2018-11-10T04:57:53.799Z,99393.44
2018-11-10T04:58:28.154Z,99392.38
2018-11-10T04:59:02.525Z,99396.34
2018-11-10T04:59:36.874Z,99387.66
2018-11-10T05:00:14.673Z,99392.95
2018-11-10T05:00:49.434Z,99398.86
2018-11-10T05:01:23.893Z,99397.18
2018-11-10T05:01:58.643Z,99386.92
2018-11-10T05:02:32.990Z,99357.77
2018-11-10T05:03:07.360Z,99384.40
2018-11-10T05:03:42.060Z,99390.50
2018-11-10T05:04:16.518Z,99392.44
2018-11-10T05:04:50.984Z,99390.40
2018-11-10T05:05:25.355Z,99394.72
2018-11-10T05:05:59.722Z,99388.76
2018-11-10T05:06:34.114Z,99393.44
2018-11-10T05:07:08.448Z,99404.86
2018-11-10T05:07:42.933Z,99417.06
2018-11-10T05:08:17.372Z,99417.16
2018-11-10T05:08:51.982Z,99418.27
2018-11-10T05:09:26.343Z,99422.33
2018-11-10T05:10:00.714Z,99411.00
2018-11-10T05:10:35.074Z,99412.57
2018-11-10T05:11:09.737Z,99424.31
2018-11-10T05:11:44.256Z,99427.69
2018-11-10T05:12:19.262Z,99421.84
2018-11-10T05:12:53.808Z,99412.42
2018-11-10T05:13:28.234Z,99408.10
2018-11-10T05:14:02.621Z,99406.81
2018-11-10T05:14:36.967Z,99404.90
2018-11-10T05:15:12.715Z,99406.89
2018-11-10T05:15:47.396Z,99408.50
2018-11-10T05:16:22.019Z,99405.45
2018-11-10T05:16:57.028Z,99406.30
2018-11-10T05:17:31.447Z,99407.88
2018-11-10T05:18:06.145Z,99419.72
2018-11-10T05:18:41.924Z,99425.33
2018-11-10T05:19:16.471Z,99426.68
2018-11-10T05:19:50.973Z,99419.45
2018-11-10T05:20:25.374Z,99410.68
2018-11-10T05:20:59.802Z,99403.39
2018-11-10T05:21:34.292Z,99406.48
2018-11-10T05:22:08.661Z,99418.55
2018-11-10T05:22:43.684Z,99411.80
2018-11-10T05:23:18.314Z,99406.19
2018-11-10T05:23:52.952Z,99407.48
2018-11-10T05:24:27.737Z,99399.06
2018-11-10T05:25:02.307Z,99392.84
2018-11-10T05:25:36.667Z,99387.62
2018-11-10T05:26:11.187Z,99382.91
2018-11-10T05:26:46.070Z,99392.69
2018-11-10T05:27:20.938Z,99395.47
2018-11-10T05:27:55.381Z,99394.53
2018-11-10T05:28:29.706Z,99385.56
2018-11-10T05:29:05.495Z,99385.56
2018-11-10T05:29:39.811Z,99381.49
2018-11-10T05:30:14.652Z,99367.27
2018-11-10T05:30:49.323Z,99364.45
2018-11-10T05:31:24.205Z,99369.78
2018-11-10T05:31:58.606Z,99380.79
2018-11-10T05:32:33.100Z,99394.63
2018-11-10T05:33:07.556Z,99391.80
2018-11-10T05:33:42.477Z,99386.17
2018-11-10T05:34:17.005Z,99382.85
2018-11-10T05:34:51.996Z,99372.39
2018-11-10T05:35:26.500Z,99370.58
2018-11-10T05:36:00.936Z,99379.46
2018-11-10T05:36:35.341Z,99384.69
2018-11-10T05:37:10.138Z,99394.41
2018-11-10T05:37:44.785Z,99399.77
2018-11-10T05:38:19.549Z,99405.70
2018-11-10T05:38:54.058Z,99413.52
2018-11-10T05:39:28.424Z,99412.45
2018-11-10T05:40:02.828Z,99413.26
2018-11-10T05:40:37.440Z,99424.02
2018-11-10T05:41:12.250Z,99428.23
2018-11-10T05:41:47.031Z,99431.63
2018-11-10T05:42:21.748Z,99430.17
2018-11-10T05:42:56.297Z,99435.56
2018-11-10T05:43:30.647Z,99438.88
2018-11-10T05:44:05.131Z,99435.69
2018-11-10T05:44:39.847Z,99433.24
2018-11-10T05:45:14.722Z,99434.30
2018-11-10T05:45:49.279Z,99442.80
2018-11-10T05:46:23.768Z,99442.86
2018-11-10T05:46:58.123Z,99437.82
2018-11-10T05:47:32.530Z,99435.11
2018-11-10T05:48:07.264Z,99419.20
2018-11-10T05:48:41.786Z,99415.65
2018-11-10T05:49:16.818Z,99419.61
2018-11-10T05:49:51.500Z,99410.55
2018-11-10T05:50:25.895Z,99412.16
2018-11-10T05:51:00.297Z,99405.31
2018-11-10T05:51:34.774Z,99407.99
2018-11-10T05:52:09.152Z,99416.84
2018-11-10T05:52:44.076Z,99405.22
2018-11-10T05:53:18.554Z,99407.83
2018-11-10T05:53:53.005Z,99384.42
2018-11-10T05:54:27.470Z,99382.06
2018-11-10T05:55:01.922Z,99380.23
2018-11-10T05:55:36.624Z,99379.87
2018-11-10T05:56:11.925Z,99377.84
2018-11-10T05:56:46.926Z,99391.50
2018-11-10T05:57:21.710Z,99379.80
2018-11-10T05:57:56.435Z,99372.27
2018-11-10T05:58:30.828Z,99365.55
2018-11-10T05:59:05.932Z,99362.69
2018-11-10T05:59:40.394Z,99357.44
2018-11-10T06:00:15.103Z,99352.64
2018-11-10T06:00:49.678Z,99361.25
2018-11-10T06:01:24.118Z,99354.10
2018-11-10T06:01:58.471Z,99354.41
2018-11-10T06:02:32.880Z,99355.95
2018-11-10T06:03:07.313Z,99350.84
2018-11-10T06:03:41.968Z,99341.67
2018-11-10T06:04:16.649Z,99348.73
2018-11-10T06:04:51.136Z,99340.37
2018-11-10T06:05:25.516Z,99351.64
2018-11-10T06:05:59.985Z,99343.48
2018-11-10T06:06:34.391Z,99339.14
2018-11-10T06:07:08.861Z,99334.49
2018-11-10T06:07:43.514Z,99339.38
2018-11-10T06:08:18.243Z,99334.08
2018-11-10T06:08:52.991Z,99332.90
2018-11-10T06:09:27.388Z,99338.23
2018-11-10T06:10:02.104Z,99332.88
2018-11-10T06:10:36.490Z,99327.05
2018-11-10T06:11:11.045Z,99331.98
2018-11-10T06:11:45.622Z,99332.34
2018-11-10T06:12:20.228Z,99334.17
2018-11-10T06:12:54.604Z,99329.71
2018-11-10T06:13:29.421Z,99334.36
2018-11-10T06:14:04.537Z,99326.70
2018-11-10T06:14:39.100Z,99330.64
2018-11-10T06:15:14.000Z,99329.48
2018-11-10T06:15:48.951Z,99329.56
2018-11-10T06:16:23.355Z,99333.62
2018-11-10T06:16:57.768Z,99330.05
2018-11-10T06:17:32.152Z,99327.53
2018-11-10T06:18:07.145Z,99331.17
2018-11-10T06:18:41.863Z,99330.64
2018-11-10T06:19:16.542Z,99330.62
2018-11-10T06:19:51.056Z,99333.70
2018-11-10T06:20:25.481Z,99332.27
2018-11-10T06:20:59.936Z,99335.22
2018-11-10T06:21:34.355Z,99340.89
2018-11-10T06:22:08.726Z,99333.60
2018-11-10T06:22:43.702Z,99349.03
2018-11-10T06:23:18.595Z,99350.48
2018-11-10T06:23:53.150Z,99347.45
2018-11-10T06:24:27.566Z,99333.98
2018-11-10T06:25:02.032Z,99336.51
2018-11-10T06:25:36.394Z,99330.62
2018-11-10T06:26:10.902Z,99317.75
2018-11-10T06:26:46.361Z,99330.42
2018-11-10T06:27:21.077Z,99337.16
2018-11-10T06:27:55.488Z,99334.79
2018-11-10T06:28:29.891Z,99336.55
2018-11-10T06:29:04.349Z,99331.09
2018-11-10T06:29:39.112Z,99333.35
2018-11-10T06:30:13.914Z,99328.35
2018-11-10T06:30:48.542Z,99336.19
2018-11-10T06:31:23.193Z,99327.00
2018-11-10T06:31:57.646Z,99324.63
2018-11-10T06:32:32.167Z,99339.31
2018-11-10T06:33:07.037Z,99337.48
2018-11-10T06:33:41.581Z,99341.66
2018-11-10T06:34:16.897Z,99350.23
2018-11-10T06:34:51.912Z,99338.32
2018-11-10T06:35:26.263Z,99346.28
2018-11-10T06:36:00.644Z,99347.81
2018-11-10T06:36:35.404Z,99357.69
2018-11-10T06:37:09.858Z,99350.80
2018-11-10T06:37:44.592Z,99346.13
2018-11-10T06:38:19.088Z,99353.88
2018-11-10T06:38:53.557Z,99354.95
2018-11-10T06:39:28.124Z,99355.86
2018-11-10T06:40:02.711Z,99363.51
2018-11-10T06:40:37.143Z,99369.36
2018-11-10T06:41:11.839Z,99370.54
2018-11-10T06:41:46.457Z,99367.02
2018-11-10T06:42:21.328Z,99375.52
2018-11-10T06:42:55.773Z,99364.34
2018-11-10T06:43:30.129Z,99374.68
2018-11-10T06:44:04.859Z,99383.13
2018-11-10T06:44:39.576Z,99380.25
2018-11-10T06:45:14.343Z,99376.18
2018-11-10T06:45:49.012Z,99365.89
2018-11-10T06:46:23.557Z,99364.30
2018-11-10T06:46:57.918Z,99366.34
2018-11-10T06:47:32.624Z,99361.33